SVA023 OERK-KJFK
Flight info
| Callsign | SVA023 |
|---|---|
| Flight time | N/A |
| Altitude | 32000 |
| Route | GOBMO T503 OVANO L768 MODAD B544 ALE M861 NISAP UM861 BUK UL621 ODERO T86 MATEL/N0487F340 T746 ARGES DCT ENIMA DCT EVRIK DCT EPARI DCT LANUX DCT RAPET T843 DEMAB L604 RELBI L602 RKN L980 TENLI L602 NALAX L46 GETNO DCT BAMLI DCT MOLAK DCT NETKI DCT RESNO/M084F360 NATB ELSIR/N0487F380 N406A TOPPS DCT ENE PARCH3 |
| Aircraft | B77W/H-SDE1E2E3FGHIJ2J3J4J5M1RWXY/LB1D1 |
Departure
| Time | N/A |
|---|---|
| Airport | King Khalid International Airport (OERK) |
Arrival
| Time | 2026-05-08 19:25 |
|---|---|
| Airport | John F. Kennedy International Airport (KJFK) |
| Time | Latitude | Longitude | Altitude | Speed | Heading |
|---|---|---|---|---|---|
| 2026-05-08 17:38 | 47.31500 | -61.55155 | 35709 ft | 433 kts | 239° |
| 2026-05-08 17:38 | 47.30737 | -61.57863 | 35717 ft | 433 kts | 239° |
| 2026-05-08 17:38 | 47.28417 | -61.66075 | 35701 ft | 434 kts | 239° |
| 2026-05-08 17:39 | 47.26087 | -61.74302 | 35716 ft | 436 kts | 240° |
| 2026-05-08 17:39 | 47.23744 | -61.82545 | 35700 ft | 436 kts | 239° |
| 2026-05-08 17:40 | 47.21396 | -61.90780 | 35716 ft | 436 kts | 239° |
| 2026-05-08 17:40 | 47.19053 | -61.98976 | 35709 ft | 434 kts | 239° |
| 2026-05-08 17:41 | 47.16726 | -62.07083 | 35713 ft | 432 kts | 239° |
| 2026-05-08 17:41 | 47.14386 | -62.15205 | 35722 ft | 431 kts | 239° |
| 2026-05-08 17:42 | 47.12040 | -62.23317 | 35714 ft | 432 kts | 240° |
| 2026-05-08 17:42 | 47.09681 | -62.31452 | 35720 ft | 433 kts | 240° |
| 2026-05-08 17:43 | 47.07310 | -62.39597 | 35719 ft | 434 kts | 240° |
| 2026-05-08 17:43 | 47.04930 | -62.47747 | 35706 ft | 435 kts | 240° |
| 2026-05-08 17:44 | 47.02542 | -62.55904 | 35722 ft | 435 kts | 240° |
| 2026-05-08 17:44 | 47.00161 | -62.64010 | 35718 ft | 437 kts | 240° |
| 2026-05-08 17:45 | 46.97733 | -62.72239 | 35716 ft | 438 kts | 240° |
| 2026-05-08 17:45 | 46.95325 | -62.80380 | 35707 ft | 439 kts | 240° |
| 2026-05-08 17:46 | 46.92887 | -62.88595 | 35715 ft | 441 kts | 240° |
| 2026-05-08 17:46 | 46.90434 | -62.96830 | 35708 ft | 442 kts | 241° |
| 2026-05-08 17:47 | 46.87971 | -63.05072 | 35702 ft | 443 kts | 241° |
| 2026-05-08 17:47 | 46.85915 | -63.11933 | 35701 ft | 444 kts | 241° |
| 2026-05-08 17:48 | 46.83009 | -63.21600 | 35697 ft | 445 kts | 240° |
| 2026-05-08 17:48 | 46.80528 | -63.29824 | 35698 ft | 445 kts | 240° |
| 2026-05-08 17:49 | 46.78025 | -63.38090 | 35711 ft | 445 kts | 241° |
| 2026-05-08 17:49 | 46.75514 | -63.46356 | 35688 ft | 445 kts | 241° |
| 2026-05-08 17:50 | 46.72997 | -63.54615 | 35702 ft | 446 kts | 241° |
| 2026-05-08 17:50 | 46.70466 | -63.62891 | 35695 ft | 447 kts | 241° |
| 2026-05-08 17:51 | 46.67929 | -63.71162 | 35694 ft | 447 kts | 241° |
| 2026-05-08 17:51 | 46.65382 | -63.79435 | 35703 ft | 448 kts | 242° |
| 2026-05-08 17:52 | 46.62827 | -63.87711 | 35697 ft | 449 kts | 242° |
| 2026-05-08 17:53 | 46.58977 | -64.00124 | 35688 ft | 449 kts | 242° |
| 2026-05-08 17:53 | 46.56417 | -64.08348 | 35688 ft | 449 kts | 241° |
| 2026-05-08 17:54 | 46.53833 | -64.16620 | 35708 ft | 450 kts | 242° |
| 2026-05-08 17:54 | 46.51239 | -64.24896 | 35698 ft | 450 kts | 242° |
| 2026-05-08 17:55 | 46.48642 | -64.33159 | 35691 ft | 450 kts | 242° |
| 2026-05-08 17:55 | 46.46031 | -64.41438 | 35696 ft | 451 kts | 242° |
| 2026-05-08 17:56 | 46.43417 | -64.49698 | 35695 ft | 451 kts | 242° |
| 2026-05-08 17:56 | 46.40793 | -64.57962 | 35697 ft | 450 kts | 242° |
| 2026-05-08 17:57 | 46.38167 | -64.66206 | 35696 ft | 451 kts | 242° |
| 2026-05-08 17:57 | 46.35550 | -64.74398 | 35703 ft | 451 kts | 242° |
| 2026-05-08 17:58 | 46.32907 | -64.82644 | 35700 ft | 451 kts | 242° |
| 2026-05-08 17:58 | 46.30260 | -64.90874 | 35703 ft | 451 kts | 242° |
| 2026-05-08 17:59 | 46.27609 | -64.99093 | 35701 ft | 451 kts | 242° |
| 2026-05-08 17:59 | 46.24948 | -65.07313 | 35702 ft | 451 kts | 242° |
| 2026-05-08 18:00 | 46.22287 | -65.15512 | 35703 ft | 451 kts | 242° |
| 2026-05-08 18:00 | 46.18278 | -65.27815 | 35702 ft | 451 kts | 242° |
| 2026-05-08 18:01 | 46.15595 | -65.36009 | 35702 ft | 451 kts | 242° |
| 2026-05-08 18:01 | 46.12906 | -65.44198 | 35715 ft | 453 kts | 242° |
| 2026-05-08 18:02 | 46.10664 | -65.51010 | 35718 ft | 453 kts | 242° |
| 2026-05-08 18:02 | 46.07512 | -65.60552 | 35708 ft | 454 kts | 242° |
| 2026-05-08 18:03 | 46.04794 | -65.68757 | 35715 ft | 454 kts | 242° |
| 2026-05-08 18:03 | 46.02071 | -65.76947 | 35710 ft | 454 kts | 242° |
| 2026-05-08 18:04 | 45.99340 | -65.85139 | 35712 ft | 453 kts | 242° |
| 2026-05-08 18:04 | 45.96609 | -65.93304 | 35720 ft | 453 kts | 242° |
| 2026-05-08 18:05 | 45.93865 | -66.01479 | 35716 ft | 454 kts | 242° |
| 2026-05-08 18:05 | 45.91116 | -66.09648 | 35727 ft | 454 kts | 242° |
| 2026-05-08 18:06 | 45.88363 | -66.17800 | 35727 ft | 454 kts | 243° |
| 2026-05-08 18:06 | 45.85619 | -66.25901 | 35735 ft | 454 kts | 243° |
| 2026-05-08 18:07 | 45.82855 | -66.34037 | 35748 ft | 454 kts | 243° |
| 2026-05-08 18:07 | 45.80086 | -66.42163 | 35749 ft | 454 kts | 242° |
| 2026-05-08 18:08 | 45.77311 | -66.50280 | 35736 ft | 454 kts | 242° |
| 2026-05-08 18:08 | 45.74528 | -66.58397 | 35725 ft | 454 kts | 243° |
| 2026-05-08 18:09 | 45.71739 | -66.66506 | 35739 ft | 454 kts | 243° |
| 2026-05-08 18:09 | 45.68942 | -66.74615 | 35743 ft | 455 kts | 243° |
| 2026-05-08 18:10 | 45.66132 | -66.82735 | 35744 ft | 455 kts | 243° |
| 2026-05-08 18:10 | 45.63318 | -66.90843 | 35745 ft | 456 kts | 243° |
| 2026-05-08 18:11 | 45.60495 | -66.98951 | 35746 ft | 456 kts | 243° |
| 2026-05-08 18:11 | 45.57666 | -67.07055 | 35755 ft | 455 kts | 243° |
| 2026-05-08 18:12 | 45.54858 | -67.15072 | 35765 ft | 455 kts | 243° |
| 2026-05-08 18:12 | 45.52022 | -67.23146 | 35768 ft | 454 kts | 243° |
| 2026-05-08 18:13 | 45.49184 | -67.31200 | 35771 ft | 455 kts | 243° |
| 2026-05-08 18:13 | 45.46337 | -67.39255 | 35775 ft | 455 kts | 243° |
| 2026-05-08 18:14 | 45.43482 | -67.47311 | 35782 ft | 455 kts | 243° |
| 2026-05-08 18:14 | 45.40625 | -67.55350 | 35780 ft | 456 kts | 243° |
| 2026-05-08 18:15 | 45.37757 | -67.63397 | 35790 ft | 456 kts | 243° |
| 2026-05-08 18:15 | 45.34803 | -67.71369 | 35782 ft | 455 kts | 238° |
| 2026-05-08 18:16 | 45.31086 | -67.78627 | 36065 ft | 459 kts | 229° |
| 2026-05-08 18:16 | 45.28946 | -67.81987 | 36404 ft | 457 kts | 229° |
| 2026-05-08 18:16 | 45.26809 | -67.85315 | 36754 ft | 455 kts | 229° |
| 2026-05-08 18:17 | 45.24684 | -67.88625 | 37068 ft | 455 kts | 229° |
| 2026-05-08 18:17 | 45.22549 | -67.91956 | 37238 ft | 457 kts | 229° |
| 2026-05-08 18:17 | 45.20411 | -67.95300 | 37446 ft | 457 kts | 229° |
| 2026-05-08 18:17 | 45.18281 | -67.98635 | 37701 ft | 457 kts | 229° |
| 2026-05-08 18:18 | 45.14014 | -68.05316 | 37788 ft | 455 kts | 229° |
| 2026-05-08 18:18 | 45.09797 | -68.11908 | 37781 ft | 448 kts | 229° |
| 2026-05-08 18:19 | 45.05615 | -68.18429 | 37786 ft | 446 kts | 229° |
| 2026-05-08 18:19 | 45.01466 | -68.24884 | 37777 ft | 446 kts | 229° |
| 2026-05-08 18:20 | 44.97288 | -68.31369 | 37784 ft | 447 kts | 229° |
| 2026-05-08 18:20 | 44.93090 | -68.37868 | 37800 ft | 448 kts | 229° |
| 2026-05-08 18:21 | 44.88876 | -68.44378 | 37792 ft | 449 kts | 229° |
| 2026-05-08 18:21 | 44.84649 | -68.50891 | 37800 ft | 451 kts | 229° |
| 2026-05-08 18:22 | 44.80436 | -68.57369 | 37801 ft | 452 kts | 229° |
| 2026-05-08 18:22 | 44.76181 | -68.63895 | 37802 ft | 452 kts | 229° |
| 2026-05-08 18:23 | 44.71916 | -68.70422 | 37804 ft | 453 kts | 229° |
| 2026-05-08 18:23 | 44.67639 | -68.76949 | 37799 ft | 454 kts | 229° |
| 2026-05-08 18:24 | 44.63357 | -68.83472 | 37800 ft | 454 kts | 229° |
| 2026-05-08 18:24 | 44.59788 | -68.88897 | 37800 ft | 454 kts | 229° |
| 2026-05-08 18:25 | 44.54800 | -68.96458 | 37808 ft | 454 kts | 229° |
| 2026-05-08 18:25 | 44.50506 | -69.02954 | 37805 ft | 454 kts | 229° |
| 2026-05-08 18:26 | 44.46935 | -69.08343 | 37803 ft | 454 kts | 229° |
| 2026-05-08 18:26 | 44.42638 | -69.14815 | 37778 ft | 454 kts | 230° |
| 2026-05-08 18:27 | 44.39061 | -69.20190 | 37803 ft | 453 kts | 230° |
| 2026-05-08 18:27 | 44.34035 | -69.27725 | 37807 ft | 453 kts | 229° |
| 2026-05-08 18:28 | 44.29741 | -69.34148 | 37807 ft | 452 kts | 229° |
| 2026-05-08 18:28 | 44.25473 | -69.40516 | 37812 ft | 452 kts | 230° |
| 2026-05-08 18:29 | 44.21168 | -69.46926 | 37815 ft | 452 kts | 229° |
| 2026-05-08 18:29 | 44.16858 | -69.53327 | 37837 ft | 453 kts | 230° |
| 2026-05-08 18:30 | 44.12543 | -69.59722 | 37836 ft | 453 kts | 230° |
| 2026-05-08 18:30 | 44.08225 | -69.66107 | 37837 ft | 453 kts | 230° |
| 2026-05-08 18:31 | 44.03905 | -69.72480 | 37844 ft | 453 kts | 230° |
| 2026-05-08 18:31 | 43.99569 | -69.78863 | 37843 ft | 454 kts | 230° |
| 2026-05-08 18:32 | 43.95254 | -69.85199 | 37836 ft | 454 kts | 230° |
| 2026-05-08 18:32 | 43.90909 | -69.91564 | 37853 ft | 454 kts | 230° |
| 2026-05-08 18:33 | 43.86560 | -69.97921 | 37863 ft | 454 kts | 230° |
| 2026-05-08 18:33 | 43.82209 | -70.04268 | 37853 ft | 454 kts | 230° |
| 2026-05-08 18:34 | 43.77850 | -70.10613 | 37846 ft | 454 kts | 230° |
| 2026-05-08 18:34 | 43.73490 | -70.16943 | 37841 ft | 454 kts | 230° |
| 2026-05-08 18:35 | 43.69148 | -70.23233 | 37840 ft | 454 kts | 230° |
| 2026-05-08 18:35 | 43.64776 | -70.29553 | 37820 ft | 454 kts | 230° |
| 2026-05-08 18:36 | 43.60414 | -70.35845 | 37826 ft | 454 kts | 230° |
| 2026-05-08 18:36 | 43.56028 | -70.42158 | 37842 ft | 455 kts | 230° |
| 2026-05-08 18:37 | 43.51644 | -70.48453 | 37849 ft | 455 kts | 230° |
| 2026-05-08 18:37 | 43.47255 | -70.54744 | 37860 ft | 455 kts | 230° |
| 2026-05-08 18:38 | 43.42721 | -70.60843 | 37831 ft | 460 kts | 220° |
| 2026-05-08 18:38 | 43.39907 | -70.63004 | 37845 ft | 469 kts | 206° |
| 2026-05-08 18:38 | 43.36857 | -70.64454 | 37863 ft | 470 kts | 204° |
| 2026-05-08 18:39 | 43.30605 | -70.67355 | 37842 ft | 472 kts | 205° |
| 2026-05-08 18:39 | 43.24445 | -70.70308 | 37847 ft | 472 kts | 205° |
| 2026-05-08 18:40 | 43.18247 | -70.73336 | 37844 ft | 473 kts | 205° |
| 2026-05-08 18:40 | 43.12044 | -70.76373 | 37840 ft | 474 kts | 205° |
| 2026-05-08 18:41 | 43.05825 | -70.79405 | 37846 ft | 474 kts | 205° |
| 2026-05-08 18:41 | 42.99604 | -70.82429 | 37838 ft | 474 kts | 205° |
| 2026-05-08 18:42 | 42.93406 | -70.85435 | 37838 ft | 472 kts | 205° |
| 2026-05-08 18:42 | 42.87255 | -70.88415 | 37876 ft | 471 kts | 206° |
| 2026-05-08 18:43 | 42.81072 | -70.91402 | 37870 ft | 471 kts | 206° |
| 2026-05-08 18:43 | 42.74894 | -70.94381 | 37872 ft | 470 kts | 206° |
| 2026-05-08 18:44 | 42.68718 | -70.97357 | 37859 ft | 470 kts | 206° |
| 2026-05-08 18:44 | 42.62585 | -71.00306 | 37865 ft | 471 kts | 206° |
| 2026-05-08 18:45 | 42.56405 | -71.03272 | 37858 ft | 470 kts | 206° |
| 2026-05-08 18:45 | 42.50225 | -71.06231 | 37864 ft | 471 kts | 206° |
| 2026-05-08 18:46 | 42.44051 | -71.09182 | 37844 ft | 471 kts | 206° |
| 2026-05-08 18:46 | 42.37892 | -71.12117 | 37858 ft | 468 kts | 206° |
| 2026-05-08 18:47 | 42.34837 | -71.13566 | 37818 ft | 456 kts | 206° |
| 2026-05-08 18:47 | 42.31889 | -71.14956 | 37842 ft | 441 kts | 207° |
| 2026-05-08 18:47 | 42.26158 | -71.17677 | 37861 ft | 437 kts | 207° |
| 2026-05-08 18:48 | 42.20402 | -71.20425 | 37845 ft | 446 kts | 207° |
| 2026-05-08 18:48 | 42.14483 | -71.23238 | 37888 ft | 457 kts | 207° |
| 2026-05-08 18:49 | 42.08412 | -71.26106 | 37896 ft | 467 kts | 206° |
| 2026-05-08 18:49 | 42.02247 | -71.29005 | 37883 ft | 470 kts | 206° |
| 2026-05-08 18:50 | 41.96067 | -71.31904 | 37890 ft | 470 kts | 206° |
| 2026-05-08 18:50 | 41.89903 | -71.34795 | 37889 ft | 469 kts | 206° |
| 2026-05-08 18:51 | 41.83753 | -71.37675 | 37890 ft | 466 kts | 207° |
| 2026-05-08 18:51 | 41.77639 | -71.40534 | 37881 ft | 465 kts | 207° |
| 2026-05-08 18:52 | 41.71758 | -71.43637 | 37862 ft | 451 kts | 219° |
| 2026-05-08 18:52 | 41.69340 | -71.46160 | 37897 ft | 436 kts | 228° |
| 2026-05-08 18:52 | 41.67060 | -71.48830 | 37871 ft | 437 kts | 227° |
| 2026-05-08 18:53 | 41.62449 | -71.54097 | 37347 ft | 433 kts | 227° |
| 2026-05-08 18:53 | 41.60182 | -71.56639 | 36770 ft | 430 kts | 227° |
| 2026-05-08 18:53 | 41.57891 | -71.59194 | 36231 ft | 428 kts | 227° |
| 2026-05-08 18:54 | 41.55584 | -71.61757 | 35760 ft | 423 kts | 227° |
| 2026-05-08 18:54 | 41.53363 | -71.64221 | 35353 ft | 418 kts | 227° |
| 2026-05-08 18:54 | 41.51141 | -71.66683 | 34951 ft | 412 kts | 228° |
| 2026-05-08 18:54 | 41.48954 | -71.69107 | 34578 ft | 406 kts | 228° |
| 2026-05-08 18:55 | 41.44644 | -71.73885 | 33698 ft | 399 kts | 229° |
| 2026-05-08 18:55 | 41.42518 | -71.76240 | 33183 ft | 393 kts | 229° |
| 2026-05-08 18:55 | 41.40450 | -71.78521 | 32425 ft | 382 kts | 230° |
| 2026-05-08 18:56 | 41.38408 | -71.80775 | 31437 ft | 378 kts | 230° |
| 2026-05-08 18:56 | 41.36394 | -71.83005 | 30495 ft | 374 kts | 230° |
| 2026-05-08 18:56 | 41.34406 | -71.85203 | 29621 ft | 368 kts | 231° |
| 2026-05-08 18:56 | 41.32451 | -71.87360 | 28658 ft | 362 kts | 230° |
| 2026-05-08 18:57 | 41.30526 | -71.89479 | 27718 ft | 356 kts | 230° |
| 2026-05-08 18:57 | 41.29271 | -71.90859 | 27088 ft | 353 kts | 230° |
| 2026-05-08 18:57 | 41.26755 | -71.93627 | 25841 ft | 349 kts | 230° |
| 2026-05-08 18:57 | 41.24897 | -71.95668 | 24958 ft | 345 kts | 230° |
| 2026-05-08 18:58 | 41.23058 | -71.97684 | 24368 ft | 343 kts | 230° |
| 2026-05-08 18:58 | 41.21227 | -71.99701 | 24204 ft | 348 kts | 230° |
| 2026-05-08 18:58 | 41.19329 | -72.01786 | 24054 ft | 349 kts | 229° |
| 2026-05-08 18:58 | 41.17491 | -72.03795 | 23933 ft | 342 kts | 229° |
| 2026-05-08 18:59 | 41.15676 | -72.05776 | 23926 ft | 335 kts | 229° |
| 2026-05-08 18:59 | 41.13879 | -72.07742 | 23930 ft | 335 kts | 229° |
| 2026-05-08 18:59 | 41.12069 | -72.09726 | 23939 ft | 339 kts | 229° |
| 2026-05-08 18:59 | 41.10401 | -72.11875 | 23936 ft | 329 kts | 241° |
| 2026-05-08 19:00 | 41.09597 | -72.13556 | 23940 ft | 323 kts | 250° |
| 2026-05-08 19:00 | 41.08549 | -72.17239 | 23939 ft | 319 kts | 257° |
| 2026-05-08 19:00 | 41.07869 | -72.20042 | 23950 ft | 320 kts | 257° |
| 2026-05-08 19:00 | 41.07198 | -72.22848 | 23942 ft | 316 kts | 257° |
| 2026-05-08 19:01 | 41.06539 | -72.25573 | 23847 ft | 305 kts | 257° |
| 2026-05-08 19:01 | 41.05896 | -72.28206 | 23693 ft | 296 kts | 258° |
| 2026-05-08 19:01 | 41.05268 | -72.30765 | 23460 ft | 289 kts | 258° |
| 2026-05-08 19:01 | 41.04648 | -72.33283 | 23049 ft | 287 kts | 258° |
| 2026-05-08 19:02 | 41.04038 | -72.35755 | 22591 ft | 286 kts | 258° |
| 2026-05-08 19:02 | 41.03420 | -72.38256 | 22111 ft | 285 kts | 257° |
| 2026-05-08 19:02 | 41.02802 | -72.40742 | 21685 ft | 284 kts | 257° |
| 2026-05-08 19:02 | 41.02185 | -72.43218 | 21276 ft | 282 kts | 257° |
| 2026-05-08 19:03 | 41.01570 | -72.45683 | 20869 ft | 281 kts | 257° |
| 2026-05-08 19:03 | 41.00958 | -72.48130 | 20469 ft | 280 kts | 257° |
| 2026-05-08 19:03 | 41.00348 | -72.50570 | 20096 ft | 278 kts | 257° |
| 2026-05-08 19:03 | 40.99740 | -72.52996 | 19713 ft | 277 kts | 257° |
| 2026-05-08 19:04 | 40.99126 | -72.55443 | 19340 ft | 276 kts | 257° |
| 2026-05-08 19:04 | 40.98531 | -72.57812 | 18966 ft | 275 kts | 257° |
| 2026-05-08 19:04 | 40.97930 | -72.60205 | 18584 ft | 274 kts | 257° |
| 2026-05-08 19:04 | 40.97328 | -72.62599 | 18151 ft | 275 kts | 258° |
| 2026-05-08 19:05 | 40.96722 | -72.65006 | 17735 ft | 274 kts | 257° |
| 2026-05-08 19:05 | 40.96123 | -72.67382 | 17370 ft | 272 kts | 257° |
| 2026-05-08 19:05 | 40.95528 | -72.69741 | 16996 ft | 269 kts | 257° |
| 2026-05-08 19:05 | 40.94936 | -72.72084 | 16617 ft | 268 kts | 257° |
| 2026-05-08 19:06 | 40.94344 | -72.74422 | 16234 ft | 266 kts | 257° |
| 2026-05-08 19:06 | 40.93757 | -72.76738 | 15843 ft | 265 kts | 257° |
| 2026-05-08 19:06 | 40.93097 | -72.78961 | 15731 ft | 258 kts | 247° |
| 2026-05-08 19:06 | 40.91955 | -72.80855 | 15369 ft | 270 kts | 232° |
| 2026-05-08 19:07 | 40.90469 | -72.82451 | 14908 ft | 278 kts | 226° |
| 2026-05-08 19:07 | 40.88884 | -72.83955 | 14403 ft | 283 kts | 225° |
| 2026-05-08 19:07 | 40.87290 | -72.85440 | 13983 ft | 285 kts | 225° |
| 2026-05-08 19:07 | 40.85667 | -72.86955 | 13571 ft | 286 kts | 225° |
| 2026-05-08 19:08 | 40.84052 | -72.88474 | 13210 ft | 284 kts | 225° |
| 2026-05-08 19:08 | 40.82456 | -72.89985 | 12873 ft | 281 kts | 225° |
| 2026-05-08 19:08 | 40.80874 | -72.91490 | 12509 ft | 279 kts | 224° |
| 2026-05-08 19:08 | 40.79300 | -72.92991 | 12151 ft | 278 kts | 224° |
| 2026-05-08 19:09 | 40.77760 | -72.94457 | 11881 ft | 266 kts | 224° |
| 2026-05-08 19:09 | 40.76288 | -72.95859 | 11548 ft | 257 kts | 224° |
| 2026-05-08 19:09 | 40.74861 | -72.97224 | 11354 ft | 251 kts | 224° |
| 2026-05-08 19:09 | 40.73461 | -72.98561 | 11107 ft | 246 kts | 224° |
| 2026-05-08 19:10 | 40.72089 | -72.99870 | 10818 ft | 242 kts | 223° |
| 2026-05-08 19:10 | 40.70632 | -73.01058 | 10362 ft | 249 kts | 218° |
| 2026-05-08 19:10 | 40.69109 | -73.02163 | 9986 ft | 250 kts | 217° |
| 2026-05-08 19:10 | 40.67591 | -73.03261 | 9641 ft | 248 kts | 217° |
| 2026-05-08 19:11 | 40.66084 | -73.04355 | 9300 ft | 247 kts | 217° |
| 2026-05-08 19:11 | 40.64584 | -73.05446 | 8945 ft | 245 kts | 217° |
| 2026-05-08 19:11 | 40.63100 | -73.06529 | 8607 ft | 243 kts | 217° |
| 2026-05-08 19:11 | 40.61760 | -73.07782 | 8157 ft | 230 kts | 236° |
| 2026-05-08 19:12 | 40.61030 | -73.09574 | 7584 ft | 220 kts | 253° |
| 2026-05-08 19:12 | 40.60561 | -73.11500 | 7083 ft | 223 kts | 256° |
| 2026-05-08 19:12 | 40.60275 | -73.12795 | 6858 ft | 222 kts | 256° |
| 2026-05-08 19:12 | 40.59637 | -73.14620 | 6452 ft | 223 kts | 241° |
| 2026-05-08 19:13 | 40.58412 | -73.16808 | 5991 ft | 224 kts | 237° |
| 2026-05-08 19:13 | 40.57462 | -73.18432 | 5662 ft | 223 kts | 237° |
| 2026-05-08 19:13 | 40.56519 | -73.20042 | 5337 ft | 222 kts | 237° |
| 2026-05-08 19:13 | 40.55575 | -73.21656 | 4987 ft | 222 kts | 237° |
| 2026-05-08 19:14 | 40.54953 | -73.22720 | 4787 ft | 221 kts | 237° |
| 2026-05-08 19:14 | 40.54018 | -73.24326 | 4419 ft | 222 kts | 237° |
| 2026-05-08 19:14 | 40.53168 | -73.25986 | 4024 ft | 215 kts | 252° |
| 2026-05-08 19:14 | 40.52933 | -73.27831 | 3907 ft | 197 kts | 268° |
| 2026-05-08 19:15 | 40.52846 | -73.29562 | 3698 ft | 185 kts | 267° |
| 2026-05-08 19:15 | 40.52755 | -73.31221 | 3468 ft | 177 kts | 267° |
| 2026-05-08 19:15 | 40.52666 | -73.32822 | 3190 ft | 174 kts | 267° |
| 2026-05-08 19:15 | 40.52585 | -73.34365 | 3047 ft | 164 kts | 267° |
| 2026-05-08 19:16 | 40.52506 | -73.35899 | 3006 ft | 173 kts | 267° |
| 2026-05-08 19:16 | 40.52425 | -73.37492 | 2994 ft | 176 kts | 267° |
| 2026-05-08 19:16 | 40.52346 | -73.39102 | 2990 ft | 176 kts | 268° |
| 2026-05-08 19:16 | 40.52263 | -73.40701 | 2982 ft | 175 kts | 267° |
| 2026-05-08 19:17 | 40.52187 | -73.42293 | 2977 ft | 174 kts | 270° |
| 2026-05-08 19:17 | 40.52183 | -73.43881 | 2981 ft | 174 kts | 269° |
| 2026-05-08 19:17 | 40.52209 | -73.45454 | 2978 ft | 170 kts | 277° |
| 2026-05-08 19:17 | 40.52392 | -73.46917 | 2969 ft | 155 kts | 279° |
| 2026-05-08 19:18 | 40.52575 | -73.48259 | 2968 ft | 145 kts | 279° |
| 2026-05-08 19:18 | 40.52756 | -73.49556 | 2972 ft | 144 kts | 280° |
| 2026-05-08 19:18 | 40.53119 | -73.50776 | 2984 ft | 145 kts | 294° |
| 2026-05-08 19:18 | 40.53576 | -73.51958 | 2989 ft | 149 kts | 294° |
| 2026-05-08 19:19 | 40.54077 | -73.53165 | 2991 ft | 151 kts | 295° |
| 2026-05-08 19:19 | 40.54595 | -73.54352 | 2995 ft | 148 kts | 296° |
| 2026-05-08 19:19 | 40.55109 | -73.55502 | 2984 ft | 144 kts | 296° |
| 2026-05-08 19:19 | 40.55619 | -73.56633 | 2991 ft | 142 kts | 296° |
| 2026-05-08 19:20 | 40.56110 | -73.57713 | 2976 ft | 132 kts | 296° |
| 2026-05-08 19:20 | 40.56415 | -73.58384 | 2989 ft | 127 kts | 296° |
| 2026-05-08 19:20 | 40.57022 | -73.59726 | 2893 ft | 130 kts | 296° |
| 2026-05-08 19:20 | 40.57486 | -73.60746 | 2739 ft | 129 kts | 296° |
| 2026-05-08 19:21 | 40.57941 | -73.61748 | 2558 ft | 127 kts | 296° |
| 2026-05-08 19:21 | 40.58387 | -73.62731 | 2390 ft | 127 kts | 297° |
| 2026-05-08 19:21 | 40.58852 | -73.63755 | 2217 ft | 131 kts | 297° |
| 2026-05-08 19:21 | 40.59313 | -73.64771 | 2050 ft | 131 kts | 297° |
| 2026-05-08 19:22 | 40.59779 | -73.65799 | 1889 ft | 128 kts | 295° |
| 2026-05-08 19:22 | 40.60232 | -73.66797 | 1699 ft | 125 kts | 296° |
| 2026-05-08 19:22 | 40.60674 | -73.67767 | 1513 ft | 123 kts | 296° |
| 2026-05-08 19:22 | 40.61121 | -73.68749 | 1353 ft | 125 kts | 296° |
| 2026-05-08 19:23 | 40.61558 | -73.69740 | 1147 ft | 125 kts | 295° |
| 2026-05-08 19:23 | 40.62001 | -73.70725 | 960 ft | 125 kts | 297° |
| 2026-05-08 19:23 | 40.62458 | -73.71700 | 788 ft | 125 kts | 297° |
| 2026-05-08 19:23 | 40.62907 | -73.72689 | 669 ft | 127 kts | 296° |
| 2026-05-08 19:24 | 40.63351 | -73.73679 | 464 ft | 124 kts | 297° |
| 2026-05-08 19:24 | 40.63804 | -73.74632 | 304 ft | 123 kts | 296° |
| 2026-05-08 19:24 | 40.64244 | -73.75616 | 150 ft | 124 kts | 296° |
| 2026-05-08 19:24 | 40.64687 | -73.76612 | 34 ft | 125 kts | 297° |
| 2026-05-08 19:25 | 40.65074 | -73.77482 | 29 ft | 88 kts | 302° |
| 2026-05-08 19:25 | 40.65296 | -73.77965 | 25 ft | 35 kts | 300° |
| 2026-05-08 19:25 | 40.65351 | -73.78087 | 27 ft | 12 kts | 301° |
| 2026-05-08 19:25 | 40.65413 | -73.78234 | 27 ft | 20 kts | 290° |
| 2026-05-08 19:26 | 40.65402 | -73.78354 | 29 ft | 5 kts | 239° |
| 2026-05-08 19:26 | 40.65392 | -73.78376 | 29 ft | 2 kts | 239° |
| 2026-05-08 19:26 | 40.65376 | -73.78410 | 29 ft | 6 kts | 240° |
| 2026-05-08 19:26 | 40.65354 | -73.78468 | 28 ft | 8 kts | 244° |
| 2026-05-08 19:27 | 40.65329 | -73.78535 | 28 ft | 8 kts | 243° |
| 2026-05-08 19:27 | 40.65303 | -73.78601 | 29 ft | 8 kts | 242° |
| 2026-05-08 19:27 | 40.65275 | -73.78666 | 32 ft | 8 kts | 240° |
| 2026-05-08 19:27 | 40.65241 | -73.78750 | 28 ft | 12 kts | 245° |
| 2026-05-08 19:28 | 40.65219 | -73.78860 | 28 ft | 12 kts | 262° |
| 2026-05-08 19:28 | 40.65231 | -73.78973 | 28 ft | 13 kts | 286° |
| 2026-05-08 19:28 | 40.65256 | -73.79083 | 28 ft | 13 kts | 288° |
| 2026-05-08 19:28 | 40.65283 | -73.79192 | 28 ft | 13 kts | 287° |
| 2026-05-08 19:29 | 40.65284 | -73.79307 | 28 ft | 13 kts | 262° |
| 2026-05-08 19:29 | 40.65251 | -73.79414 | 28 ft | 13 kts | 241° |
| 2026-05-08 19:29 | 40.65206 | -73.79522 | 28 ft | 14 kts | 241° |
| 2026-05-08 19:29 | 40.65156 | -73.79635 | 28 ft | 14 kts | 240° |
| 2026-05-08 19:30 | 40.65099 | -73.79740 | 28 ft | 14 kts | 220° |
| 2026-05-08 19:30 | 40.65011 | -73.79797 | 28 ft | 14 kts | 193° |
| 2026-05-08 19:30 | 40.64914 | -73.79806 | 28 ft | 14 kts | 181° |
| 2026-05-08 19:30 | 40.64815 | -73.79805 | 28 ft | 14 kts | 174° |
| 2026-05-08 19:31 | 40.64721 | -73.79764 | 28 ft | 14 kts | 145° |
| 2026-05-08 19:31 | 40.64641 | -73.79688 | 28 ft | 12 kts | 145° |
| 2026-05-08 19:31 | 40.64579 | -73.79632 | 28 ft | 11 kts | 147° |
| 2026-05-08 19:31 | 40.64509 | -73.79603 | 29 ft | 11 kts | 169° |
| 2026-05-08 19:32 | 40.64434 | -73.79593 | 29 ft | 11 kts | 179° |
| 2026-05-08 19:32 | 40.64362 | -73.79593 | 29 ft | 10 kts | 182° |
| 2026-05-08 19:32 | 40.64291 | -73.79599 | 29 ft | 10 kts | 185° |
| 2026-05-08 19:32 | 40.64221 | -73.79603 | 29 ft | 9 kts | 175° |
| 2026-05-08 19:33 | 40.64191 | -73.79544 | 29 ft | 8 kts | 85° |
| 2026-05-08 19:33 | 40.64205 | -73.79470 | 29 ft | 8 kts | 77° |
| 2026-05-08 19:33 | 40.64196 | -73.79404 | 29 ft | 7 kts | 107° |
| 2026-05-08 19:33 | 40.64184 | -73.79355 | 29 ft | 3 kts | 107° |
| 2026-05-08 19:34 | 40.64180 | -73.79335 | 29 ft | 2 kts | 107° |
| 2026-05-08 19:34 | 40.64177 | -73.79323 | 29 ft | 1 kts | 108° |
| 2026-05-08 19:34 | 40.64176 | -73.79320 | 29 ft | 0 kts | 108° |